sensor_id;sensor_type;location;lat;lon;timestamp;temperature;humidity
8994;DHT22;4532;50.886;4.700;2023-02-01T00:01:46;9.50;99.90
8994;DHT22;4532;50.886;4.700;2023-02-01T00:04:15;9.50;99.90
8994;DHT22;4532;50.886;4.700;2023-02-01T00:06:43;9.50;99.90
8994;DHT22;4532;50.886;4.700;2023-02-01T00:09:17;9.50;99.90
8994;DHT22;4532;50.886;4.700;2023-02-01T00:11:44;9.50;99.90
8994;DHT22;4532;50.886;4.700;2023-02-01T00:14:12;9.50;99.90
8994;DHT22;4532;50.886;4.700;2023-02-01T00:16:51;9.60;99.90
8994;DHT22;4532;50.886;4.700;2023-02-01T00:19:19;9.60;99.90
8994;DHT22;4532;50.886;4.700;2023-02-01T00:21:46;9.60;99.90
8994;DHT22;4532;50.886;4.700;2023-02-01T00:24:18;9.60;99.90
8994;DHT22;4532;50.886;4.700;2023-02-01T00:26:45;9.60;99.90
8994;DHT22;4532;50.886;4.700;2023-02-01T00:29:18;9.60;99.90
8994;DHT22;4532;50.886;4.700;2023-02-01T00:31:50;9.60;99.90
8994;DHT22;4532;50.886;4.700;2023-02-01T00:34:22;9.60;99.90
8994;DHT22;4532;50.886;4.700;2023-02-01T00:36:52;9.60;99.90
8994;DHT22;4532;50.886;4.700;2023-02-01T00:39:21;9.60;99.90
8994;DHT22;4532;50.886;4.700;2023-02-01T00:41:51;9.60;99.90
8994;DHT22;4532;50.886;4.700;2023-02-01T00:44:21;9.60;99.90
8994;DHT22;4532;50.886;4.700;2023-02-01T00:46:48;9.60;99.90
8994;DHT22;4532;50.886;4.700;2023-02-01T00:49:18;9.60;99.90
8994;DHT22;4532;50.886;4.700;2023-02-01T00:51:47;9.60;99.90
8994;DHT22;4532;50.886;4.700;2023-02-01T00:54:17;9.60;99.90
8994;DHT22;4532;50.886;4.700;2023-02-01T00:56:44;9.60;99.90
8994;DHT22;4532;50.886;4.700;2023-02-01T00:59:13;9.60;99.90
8994;DHT22;4532;50.886;4.700;2023-02-01T01:01:41;9.60;99.90
8994;DHT22;4532;50.886;4.700;2023-02-01T01:04:10;9.60;99.90
8994;DHT22;4532;50.886;4.700;2023-02-01T01:06:37;9.60;99.90
8994;DHT22;4532;50.886;4.700;2023-02-01T01:09:07;9.60;99.90
8994;DHT22;4532;50.886;4.700;2023-02-01T01:11:38;9.70;99.90
8994;DHT22;4532;50.886;4.700;2023-02-01T01:14:08;9.70;99.90
8994;DHT22;4532;50.886;4.700;2023-02-01T01:16:40;9.70;99.90
8994;DHT22;4532;50.886;4.700;2023-02-01T01:19:08;9.60;99.90
8994;DHT22;4532;50.886;4.700;2023-02-01T01:21:35;9.60;99.90
8994;DHT22;4532;50.886;4.700;2023-02-01T01:24:02;9.70;99.90
8994;DHT22;4532;50.886;4.700;2023-02-01T01:26:34;9.70;99.90
8994;DHT22;4532;50.886;4.700;2023-02-01T01:29:04;9.70;99.90
8994;DHT22;4532;50.886;4.700;2023-02-01T01:31:34;9.70;99.90
8994;DHT22;4532;50.886;4.700;2023-02-01T01:34:04;9.70;99.90
8994;DHT22;4532;50.886;4.700;2023-02-01T01:36:31;9.70;99.90
8994;DHT22;4532;50.886;4.700;2023-02-01T01:39:00;9.70;99.90
8994;DHT22;4532;50.886;4.700;2023-02-01T01:41:31;9.70;99.90
8994;DHT22;4532;50.886;4.700;2023-02-01T01:46:37;9.60;99.90
8994;DHT22;4532;50.886;4.700;2023-02-01T01:51:49;9.50;99.90
8994;DHT22;4532;50.886;4.700;2023-02-01T01:57:03;9.50;99.90
8994;DHT22;4532;50.886;4.700;2023-02-01T01:59:32;9.60;99.90
8994;DHT22;4532;50.886;4.700;2023-02-01T02:02:07;9.50;99.90
8994;DHT22;4532;50.886;4.700;2023-02-01T02:04:35;9.60;99.90
8994;DHT22;4532;50.886;4.700;2023-02-01T02:07:10;9.50;99.90
8994;DHT22;4532;50.886;4.700;2023-02-01T02:09:39;9.50;99.90
8994;DHT22;4532;50.886;4.700;2023-02-01T02:12:14;9.60;99.90
8994;DHT22;4532;50.886;4.700;2023-02-01T02:14:44;9.50;99.90
8994;DHT22;4532;50.886;4.700;2023-02-01T02:17:29;9.50;99.90
8994;DHT22;4532;50.886;4.700;2023-02-01T02:32:33;9.30;99.90
8994;DHT22;4532;50.886;4.700;2023-02-01T02:34:54;9.30;99.90
8994;DHT22;4532;50.886;4.700;2023-02-01T02:37:46;9.20;99.90
8994;DHT22;4532;50.886;4.700;2023-02-01T02:40:35;9.20;99.90
8994;DHT22;4532;50.886;4.700;2023-02-01T02:43:18;9.10;99.90
8994;DHT22;4532;50.886;4.700;2023-02-01T02:46:24;9.10;99.90
8994;DHT22;4532;50.886;4.700;2023-02-01T02:49:18;9.10;99.90
8994;DHT22;4532;50.886;4.700;2023-02-01T02:51:55;9.00;99.90
8994;DHT22;4532;50.886;4.700;2023-02-01T02:54:47;9.00;99.90
8994;DHT22;4532;50.886;4.700;2023-02-01T02:57:30;8.90;99.90
8994;DHT22;4532;50.886;4.700;2023-02-01T03:00:23;8.90;99.90
8994;DHT22;4532;50.886;4.700;2023-02-01T03:03:10;8.90;99.90
8994;DHT22;4532;50.886;4.700;2023-02-01T03:05:56;8.80;99.90
8994;DHT22;4532;50.886;4.700;2023-02-01T03:08:27;8.80;99.90
8994;DHT22;4532;50.886;4.700;2023-02-01T03:13:54;8.80;99.90
8994;DHT22;4532;50.886;4.700;2023-02-01T03:17:03;8.70;99.90
8994;DHT22;4532;50.886;4.700;2023-02-01T03:19:39;8.70;99.90
8994;DHT22;4532;50.886;4.700;2023-02-01T03:22:24;8.70;99.90
8994;DHT22;4532;50.886;4.700;2023-02-01T03:25:23;8.70;99.90
8994;DHT22;4532;50.886;4.700;2023-02-01T03:27:57;8.70;99.90
8994;DHT22;4532;50.886;4.700;2023-02-01T03:30:41;8.70;99.90
8994;DHT22;4532;50.886;4.700;2023-02-01T03:33:12;8.70;99.90
8994;DHT22;4532;50.886;4.700;2023-02-01T03:46:33;8.60;99.90
8994;DHT22;4532;50.886;4.700;2023-02-01T03:49:10;8.60;99.90
8994;DHT22;4532;50.886;4.700;2023-02-01T03:51:42;8.60;99.90
8994;DHT22;4532;50.886;4.700;2023-02-01T03:54:14;8.60;99.90
8994;DHT22;4532;50.886;4.700;2023-02-01T03:56:44;8.60;99.90
8994;DHT22;4532;50.886;4.700;2023-02-01T03:59:14;8.70;99.90
8994;DHT22;4532;50.886;4.700;2023-02-01T04:01:44;8.60;99.90
8994;DHT22;4532;50.886;4.700;2023-02-01T04:04:11;8.50;99.90
8994;DHT22;4532;50.886;4.700;2023-02-01T04:06:50;8.50;99.90
8994;DHT22;4532;50.886;4.700;2023-02-01T04:09:22;8.60;99.90
8994;DHT22;4532;50.886;4.700;2023-02-01T04:11:52;8.50;99.90
8994;DHT22;4532;50.886;4.700;2023-02-01T04:14:19;8.50;99.90
8994;DHT22;4532;50.886;4.700;2023-02-01T04:16:51;8.50;99.90
8994;DHT22;4532;50.886;4.700;2023-02-01T04:19:19;8.50;99.90
8994;DHT22;4532;50.886;4.700;2023-02-01T04:21:46;8.50;99.90
8994;DHT22;4532;50.886;4.700;2023-02-01T04:24:13;8.50;99.90
8994;DHT22;4532;50.886;4.700;2023-02-01T04:26:40;8.50;99.90
8994;DHT22;4532;50.886;4.700;2023-02-01T04:29:09;8.50;99.90
8994;DHT22;4532;50.886;4.700;2023-02-01T04:31:41;8.50;99.90
8994;DHT22;4532;50.886;4.700;2023-02-01T04:34:09;8.50;99.90
8994;DHT22;4532;50.886;4.700;2023-02-01T04:36:38;8.50;99.90
8994;DHT22;4532;50.886;4.700;2023-02-01T04:39:09;8.40;99.90
8994;DHT22;4532;50.886;4.700;2023-02-01T04:41:36;8.40;99.90
8994;DHT22;4532;50.886;4.700;2023-02-01T04:44:04;8.30;99.90
8994;DHT22;4532;50.886;4.700;2023-02-01T04:46:33;8.40;99.90
8994;DHT22;4532;50.886;4.700;2023-02-01T04:49:05;8.40;99.90
8994;DHT22;4532;50.886;4.700;2023-02-01T04:51:32;8.30;99.90
8994;DHT22;4532;50.886;4.700;2023-02-01T04:54:02;8.30;99.90
8994;DHT22;4532;50.886;4.700;2023-02-01T04:56:29;8.30;99.90
8994;DHT22;4532;50.886;4.700;2023-02-01T04:58:57;8.20;99.90
8994;DHT22;4532;50.886;4.700;2023-02-01T05:01:26;8.20;99.90
8994;DHT22;4532;50.886;4.700;2023-02-01T05:03:56;8.30;99.90
8994;DHT22;4532;50.886;4.700;2023-02-01T05:06:24;8.30;99.90
8994;DHT22;4532;50.886;4.700;2023-02-01T05:08:53;8.20;99.90
8994;DHT22;4532;50.886;4.700;2023-02-01T05:11:21;8.20;99.90
8994;DHT22;4532;50.886;4.700;2023-02-01T05:14:07;8.20;99.90
8994;DHT22;4532;50.886;4.700;2023-02-01T05:16:34;8.20;99.90
8994;DHT22;4532;50.886;4.700;2023-02-01T05:19:03;8.20;99.90
8994;DHT22;4532;50.886;4.700;2023-02-01T05:21:36;8.20;99.90
8994;DHT22;4532;50.886;4.700;2023-02-01T05:24:08;8.20;99.90
8994;DHT22;4532;50.886;4.700;2023-02-01T05:26:48;8.20;99.90
8994;DHT22;4532;50.886;4.700;2023-02-01T05:29:18;8.20;99.90
8994;DHT22;4532;50.886;4.700;2023-02-01T05:31:46;8.10;99.90
8994;DHT22;4532;50.886;4.700;2023-02-01T05:34:16;8.10;99.90
8994;DHT22;4532;50.886;4.700;2023-02-01T05:36:47;8.10;99.90
8994;DHT22;4532;50.886;4.700;2023-02-01T05:39:17;8.00;99.90
8994;DHT22;4532;50.886;4.700;2023-02-01T05:41:46;8.10;99.90
8994;DHT22;4532;50.886;4.700;2023-02-01T05:44:19;8.00;99.90
8994;DHT22;4532;50.886;4.700;2023-02-01T05:46:48;8.00;99.90
8994;DHT22;4532;50.886;4.700;2023-02-01T05:49:16;8.00;99.90
8994;DHT22;4532;50.886;4.700;2023-02-01T05:51:45;7.90;99.90
8994;DHT22;4532;50.886;4.700;2023-02-01T05:54:15;7.90;99.90
8994;DHT22;4532;50.886;4.700;2023-02-01T05:56:42;7.90;99.90
8994;DHT22;4532;50.886;4.700;2023-02-01T05:59:11;7.90;99.90
8994;DHT22;4532;50.886;4.700;2023-02-01T06:01:39;7.90;99.90
8994;DHT22;4532;50.886;4.700;2023-02-01T06:04:10;7.90;99.90
8994;DHT22;4532;50.886;4.700;2023-02-01T06:06:42;7.90;99.90
8994;DHT22;4532;50.886;4.700;2023-02-01T06:09:09;7.80;99.90
8994;DHT22;4532;50.886;4.700;2023-02-01T06:11:39;7.80;99.90
8994;DHT22;4532;50.886;4.700;2023-02-01T06:14:13;7.80;99.90
8994;DHT22;4532;50.886;4.700;2023-02-01T06:16:40;7.80;99.90
8994;DHT22;4532;50.886;4.700;2023-02-01T06:19:09;7.80;99.90
8994;DHT22;4532;50.886;4.700;2023-02-01T06:21:37;7.80;99.90
8994;DHT22;4532;50.886;4.700;2023-02-01T06:24:04;7.80;99.90
8994;DHT22;4532;50.886;4.700;2023-02-01T06:26:33;7.80;99.90
8994;DHT22;4532;50.886;4.700;2023-02-01T06:29:03;7.70;99.90
8994;DHT22;4532;50.886;4.700;2023-02-01T06:31:30;7.70;99.90
8994;DHT22;4532;50.886;4.700;2023-02-01T06:33:58;7.70;99.90
8994;DHT22;4532;50.886;4.700;2023-02-01T06:36:26;7.60;99.90
8994;DHT22;4532;50.886;4.700;2023-02-01T06:38:53;7.60;99.90
8994;DHT22;4532;50.886;4.700;2023-02-01T06:41:23;7.60;99.90
8994;DHT22;4532;50.886;4.700;2023-02-01T06:43:51;7.60;99.90
8994;DHT22;4532;50.886;4.700;2023-02-01T06:46:21;7.60;99.90
8994;DHT22;4532;50.886;4.700;2023-02-01T06:48:53;7.70;99.90
8994;DHT22;4532;50.886;4.700;2023-02-01T06:51:23;7.60;99.90
8994;DHT22;4532;50.886;4.700;2023-02-01T06:53:51;7.60;99.90
8994;DHT22;4532;50.886;4.700;2023-02-01T06:56:20;7.60;99.90
8994;DHT22;4532;50.886;4.700;2023-02-01T06:58:48;7.60;99.90
8994;DHT22;4532;50.886;4.700;2023-02-01T07:01:20;7.60;99.90
8994;DHT22;4532;50.886;4.700;2023-02-01T07:03:50;7.60;99.90
8994;DHT22;4532;50.886;4.700;2023-02-01T07:06:20;7.60;99.90
8994;DHT22;4532;50.886;4.700;2023-02-01T07:08:47;7.60;99.90
8994;DHT22;4532;50.886;4.700;2023-02-01T07:11:16;7.70;99.90
8994;DHT22;4532;50.886;4.700;2023-02-01T07:13:46;7.60;99.90
8994;DHT22;4532;50.886;4.700;2023-02-01T07:16:17;7.60;99.90
8994;DHT22;4532;50.886;4.700;2023-02-01T07:18:49;7.60;99.90
8994;DHT22;4532;50.886;4.700;2023-02-01T07:21:21;7.60;99.90
8994;DHT22;4532;50.886;4.700;2023-02-01T07:23:49;7.60;99.90
8994;DHT22;4532;50.886;4.700;2023-02-01T07:26:21;7.60;99.90
8994;DHT22;4532;50.886;4.700;2023-02-01T07:28:48;7.60;99.90
8994;DHT22;4532;50.886;4.700;2023-02-01T07:31:18;7.60;99.90
8994;DHT22;4532;50.886;4.700;2023-02-01T07:33:48;7.60;99.90
8994;DHT22;4532;50.886;4.700;2023-02-01T07:36:24;7.50;99.90
8994;DHT22;4532;50.886;4.700;2023-02-01T07:38:51;7.50;99.90
8994;DHT22;4532;50.886;4.700;2023-02-01T07:41:25;7.60;99.90
8994;DHT22;4532;50.886;4.700;2023-02-01T07:43:59;7.60;99.90
8994;DHT22;4532;50.886;4.700;2023-02-01T07:46:28;7.60;99.90
8994;DHT22;4532;50.886;4.700;2023-02-01T07:49:01;7.50;99.90
8994;DHT22;4532;50.886;4.700;2023-02-01T07:51:28;7.60;99.90
8994;DHT22;4532;50.886;4.700;2023-02-01T07:53:58;7.50;99.90
8994;DHT22;4532;50.886;4.700;2023-02-01T07:56:25;7.60;99.90
8994;DHT22;4532;50.886;4.700;2023-02-01T07:58:55;7.60;99.90
8994;DHT22;4532;50.886;4.700;2023-02-01T08:01:29;7.60;99.90
8994;DHT22;4532;50.886;4.700;2023-02-01T08:04:00;7.60;99.90
8994;DHT22;4532;50.886;4.700;2023-02-01T08:06:33;7.50;99.90
8994;DHT22;4532;50.886;4.700;2023-02-01T08:09:04;7.60;99.90
8994;DHT22;4532;50.886;4.700;2023-02-01T08:11:34;7.60;99.90
8994;DHT22;4532;50.886;4.700;2023-02-01T08:14:05;7.60;99.90
8994;DHT22;4532;50.886;4.700;2023-02-01T08:16:33;7.60;99.90
8994;DHT22;4532;50.886;4.700;2023-02-01T08:19:06;7.60;99.90
8994;DHT22;4532;50.886;4.700;2023-02-01T08:21:34;7.70;99.90
8994;DHT22;4532;50.886;4.700;2023-02-01T08:24:08;7.70;99.90
8994;DHT22;4532;50.886;4.700;2023-02-01T08:26:36;7.60;99.90
8994;DHT22;4532;50.886;4.700;2023-02-01T08:29:05;7.70;99.90
8994;DHT22;4532;50.886;4.700;2023-02-01T08:31:38;7.70;99.90
8994;DHT22;4532;50.886;4.700;2023-02-01T08:34:08;7.70;99.90
8994;DHT22;4532;50.886;4.700;2023-02-01T08:36:42;7.70;99.90
8994;DHT22;4532;50.886;4.700;2023-02-01T08:39:10;7.80;99.90
8994;DHT22;4532;50.886;4.700;2023-02-01T08:41:38;7.80;99.90
8994;DHT22;4532;50.886;4.700;2023-02-01T08:44:05;7.90;99.90
8994;DHT22;4532;50.886;4.700;2023-02-01T08:46:35;7.90;99.90
8994;DHT22;4532;50.886;4.700;2023-02-01T08:49:09;7.90;99.90
8994;DHT22;4532;50.886;4.700;2023-02-01T08:51:38;7.90;99.90
8994;DHT22;4532;50.886;4.700;2023-02-01T08:54:06;8.00;99.90
8994;DHT22;4532;50.886;4.700;2023-02-01T08:56:39;8.00;99.90
8994;DHT22;4532;50.886;4.700;2023-02-01T08:59:06;8.00;99.90
8994;DHT22;4532;50.886;4.700;2023-02-01T09:01:33;8.00;99.90
8994;DHT22;4532;50.886;4.700;2023-02-01T09:04:05;8.00;99.90
8994;DHT22;4532;50.886;4.700;2023-02-01T09:06:32;8.00;99.90
8994;DHT22;4532;50.886;4.700;2023-02-01T09:08:59;8.10;99.90
8994;DHT22;4532;50.886;4.700;2023-02-01T09:11:27;8.20;99.90
8994;DHT22;4532;50.886;4.700;2023-02-01T09:13:56;8.20;99.90
8994;DHT22;4532;50.886;4.700;2023-02-01T09:16:23;8.20;99.90
8994;DHT22;4532;50.886;4.700;2023-02-01T09:18:50;8.20;99.90
8994;DHT22;4532;50.886;4.700;2023-02-01T09:21:42;8.20;99.90
8994;DHT22;4532;50.886;4.700;2023-02-01T09:24:13;8.30;99.90
8994;DHT22;4532;50.886;4.700;2023-02-01T09:26:43;8.30;99.90
8994;DHT22;4532;50.886;4.700;2023-02-01T09:29:13;8.30;99.90
8994;DHT22;4532;50.886;4.700;2023-02-01T09:31:45;8.30;99.90
8994;DHT22;4532;50.886;4.700;2023-02-01T09:34:28;8.40;99.90
8994;DHT22;4532;50.886;4.700;2023-02-01T09:36:57;8.40;99.90
8994;DHT22;4532;50.886;4.700;2023-02-01T09:39:27;8.40;99.90
8994;DHT22;4532;50.886;4.700;2023-02-01T09:42:08;8.40;99.90
8994;DHT22;4532;50.886;4.700;2023-02-01T09:47:28;8.50;99.90
8994;DHT22;4532;50.886;4.700;2023-02-01T09:49:59;8.50;99.90
8994;DHT22;4532;50.886;4.700;2023-02-01T09:55:16;8.60;99.90
8994;DHT22;4532;50.886;4.700;2023-02-01T09:57:54;8.60;99.90
8994;DHT22;4532;50.886;4.700;2023-02-01T10:00:29;8.60;99.90
8994;DHT22;4532;50.886;4.700;2023-02-01T10:02:59;8.60;99.90
8994;DHT22;4532;50.886;4.700;2023-02-01T10:25:56;9.00;99.90
8994;DHT22;4532;50.886;4.700;2023-02-01T10:28:36;9.00;99.90
8994;DHT22;4532;50.886;4.700;2023-02-01T10:31:09;9.00;99.90
8994;DHT22;4532;50.886;4.700;2023-02-01T10:33:59;9.10;99.90
8994;DHT22;4532;50.886;4.700;2023-02-01T10:36:36;9.10;99.90
8994;DHT22;4532;50.886;4.700;2023-02-01T10:39:11;9.10;99.90
8994;DHT22;4532;50.886;4.700;2023-02-01T10:41:40;9.20;99.90
8994;DHT22;4532;50.886;4.700;2023-02-01T10:44:19;9.20;99.90
8994;DHT22;4532;50.886;4.700;2023-02-01T10:46:50;9.30;99.90
8994;DHT22;4532;50.886;4.700;2023-02-01T10:49:25;9.30;99.90
8994;DHT22;4532;50.886;4.700;2023-02-01T10:52:12;9.30;99.90
8994;DHT22;4532;50.886;4.700;2023-02-01T10:54:44;9.40;99.90
8994;DHT22;4532;50.886;4.700;2023-02-01T10:57:24;9.40;99.90
8994;DHT22;4532;50.886;4.700;2023-02-01T10:59:53;9.40;99.90
8994;DHT22;4532;50.886;4.700;2023-02-01T11:05:08;9.50;99.90
8994;DHT22;4532;50.886;4.700;2023-02-01T11:07:45;9.50;99.90
8994;DHT22;4532;50.886;4.700;2023-02-01T11:10:42;9.50;99.90
8994;DHT22;4532;50.886;4.700;2023-02-01T11:13:17;9.60;99.90
8994;DHT22;4532;50.886;4.700;2023-02-01T11:15:55;9.60;99.90
8994;DHT22;4532;50.886;4.700;2023-02-01T11:18:35;9.60;99.90
8994;DHT22;4532;50.886;4.700;2023-02-01T11:21:05;9.70;99.90
8994;DHT22;4532;50.886;4.700;2023-02-01T11:23:33;9.80;99.90
8994;DHT22;4532;50.886;4.700;2023-02-01T11:26:15;9.80;99.90
8994;DHT22;4532;50.886;4.700;2023-02-01T11:28:53;9.80;99.90
8994;DHT22;4532;50.886;4.700;2023-02-01T11:31:22;9.90;99.90
8994;DHT22;4532;50.886;4.700;2023-02-01T11:33:58;9.90;99.90
8994;DHT22;4532;50.886;4.700;2023-02-01T11:36:32;10.00;99.90
8994;DHT22;4532;50.886;4.700;2023-02-01T11:41:54;10.00;99.90
8994;DHT22;4532;50.886;4.700;2023-02-01T11:44:33;10.10;99.90
8994;DHT22;4532;50.886;4.700;2023-02-01T11:47:31;10.10;99.90
8994;DHT22;4532;50.886;4.700;2023-02-01T11:50:02;10.20;99.90
8994;DHT22;4532;50.886;4.700;2023-02-01T12:24:43;10.50;99.90
8994;DHT22;4532;50.886;4.700;2023-02-01T12:33:30;10.70;99.90
8994;DHT22;4532;50.886;4.700;2023-02-01T12:43:45;10.70;99.90
8994;DHT22;4532;50.886;4.700;2023-02-01T12:46:19;10.80;99.90
8994;DHT22;4532;50.886;4.700;2023-02-01T12:49:06;10.80;99.90
8994;DHT22;4532;50.886;4.700;2023-02-01T12:51:43;10.80;99.90
8994;DHT22;4532;50.886;4.700;2023-02-01T12:57:04;10.90;99.90
8994;DHT22;4532;50.886;4.700;2023-02-01T12:59:36;10.90;99.90
8994;DHT22;4532;50.886;4.700;2023-02-01T13:02:28;10.90;99.90
8994;DHT22;4532;50.886;4.700;2023-02-01T13:05:22;11.00;99.90
8994;DHT22;4532;50.886;4.700;2023-02-01T13:08:08;11.00;99.90
8994;DHT22;4532;50.886;4.700;2023-02-01T13:10:51;11.00;99.90
8994;DHT22;4532;50.886;4.700;2023-02-01T13:13:54;11.10;99.90
8994;DHT22;4532;50.886;4.700;2023-02-01T13:16:37;11.10;99.90
8994;DHT22;4532;50.886;4.700;2023-02-01T13:21:46;11.10;99.90
8994;DHT22;4532;50.886;4.700;2023-02-01T13:25:00;11.10;99.90
8994;DHT22;4532;50.886;4.700;2023-02-01T13:27:35;11.10;99.90
8994;DHT22;4532;50.886;4.700;2023-02-01T13:33:32;11.10;99.90
8994;DHT22;4532;50.886;4.700;2023-02-01T13:39:45;11.20;99.90
8994;DHT22;4532;50.886;4.700;2023-02-01T13:42:33;11.20;99.90
8994;DHT22;4532;50.886;4.700;2023-02-01T13:45:13;11.30;99.90
8994;DHT22;4532;50.886;4.700;2023-02-01T13:47:47;11.30;99.90
8994;DHT22;4532;50.886;4.700;2023-02-01T13:50:32;11.40;99.90
8994;DHT22;4532;50.886;4.700;2023-02-01T13:55:50;11.50;99.90
8994;DHT22;4532;50.886;4.700;2023-02-01T13:58:38;11.50;99.90
8994;DHT22;4532;50.886;4.700;2023-02-01T14:03:59;11.50;99.90
8994;DHT22;4532;50.886;4.700;2023-02-01T14:09:33;11.50;99.90
8994;DHT22;4532;50.886;4.700;2023-02-01T14:15:23;11.60;99.90
8994;DHT22;4532;50.886;4.700;2023-02-01T14:17:56;11.50;99.90
8994;DHT22;4532;50.886;4.700;2023-02-01T14:20:44;11.60;99.90
8994;DHT22;4532;50.886;4.700;2023-02-01T14:23:16;11.50;99.90
8994;DHT22;4532;50.886;4.700;2023-02-01T14:25:46;11.50;99.90
8994;DHT22;4532;50.886;4.700;2023-02-01T14:28:24;11.50;99.90
8994;DHT22;4532;50.886;4.700;2023-02-01T14:30:54;11.50;99.90
8994;DHT22;4532;50.886;4.700;2023-02-01T14:33:27;11.50;99.90
8994;DHT22;4532;50.886;4.700;2023-02-01T14:36:15;11.60;99.90
8994;DHT22;4532;50.886;4.700;2023-02-01T14:38:50;11.60;99.90
8994;DHT22;4532;50.886;4.700;2023-02-01T14:41:29;11.60;99.90
8994;DHT22;4532;50.886;4.700;2023-02-01T14:47:02;11.60;99.90
8994;DHT22;4532;50.886;4.700;2023-02-01T14:49:33;11.60;99.90
8994;DHT22;4532;50.886;4.700;2023-02-01T14:52:09;11.60;99.90
8994;DHT22;4532;50.886;4.700;2023-02-01T14:54:42;11.60;99.90
8994;DHT22;4532;50.886;4.700;2023-02-01T14:57:21;11.60;99.90
8994;DHT22;4532;50.886;4.700;2023-02-01T15:02:46;11.60;99.90
8994;DHT22;4532;50.886;4.700;2023-02-01T15:05:31;11.60;99.90
8994;DHT22;4532;50.886;4.700;2023-02-01T15:08:17;11.60;99.90
8994;DHT22;4532;50.886;4.700;2023-02-01T15:10:49;11.60;99.90
8994;DHT22;4532;50.886;4.700;2023-02-01T15:13:24;11.60;99.90
8994;DHT22;4532;50.886;4.700;2023-02-01T15:16:02;11.50;99.90
8994;DHT22;4532;50.886;4.700;2023-02-01T15:18:33;11.50;99.90
8994;DHT22;4532;50.886;4.700;2023-02-01T15:21:04;11.50;99.90
8994;DHT22;4532;50.886;4.700;2023-02-01T15:24:13;11.40;99.90
8994;DHT22;4532;50.886;4.700;2023-02-01T15:26:45;11.40;99.90
8994;DHT22;4532;50.886;4.700;2023-02-01T15:29:14;11.40;99.90
8994;DHT22;4532;50.886;4.700;2023-02-01T15:31:52;11.30;99.90
8994;DHT22;4532;50.886;4.700;2023-02-01T15:34:33;11.30;99.90
8994;DHT22;4532;50.886;4.700;2023-02-01T15:37:13;11.30;99.90
8994;DHT22;4532;50.886;4.700;2023-02-01T15:42:35;11.30;99.90
8994;DHT22;4532;50.886;4.700;2023-02-01T15:45:03;11.30;99.90
8994;DHT22;4532;50.886;4.700;2023-02-01T15:47:32;11.30;99.90
8994;DHT22;4532;50.886;4.700;2023-02-01T15:50:00;11.30;99.90
8994;DHT22;4532;50.886;4.700;2023-02-01T15:52:39;11.30;99.90
8994;DHT22;4532;50.886;4.700;2023-02-01T15:57:46;11.30;99.90
8994;DHT22;4532;50.886;4.700;2023-02-01T16:00:26;11.20;99.90
8994;DHT22;4532;50.886;4.700;2023-02-01T16:02:59;11.30;99.90
8994;DHT22;4532;50.886;4.700;2023-02-01T16:08:10;11.20;99.90
8994;DHT22;4532;50.886;4.700;2023-02-01T16:10:46;11.20;99.90
8994;DHT22;4532;50.886;4.700;2023-02-01T16:13:17;11.20;99.90
8994;DHT22;4532;50.886;4.700;2023-02-01T16:15:47;11.20;99.90
8994;DHT22;4532;50.886;4.700;2023-02-01T16:18:15;11.20;99.90
8994;DHT22;4532;50.886;4.700;2023-02-01T16:20:47;11.20;99.90
8994;DHT22;4532;50.886;4.700;2023-02-01T16:23:17;11.20;99.90
8994;DHT22;4532;50.886;4.700;2023-02-01T16:25:46;11.20;99.90
8994;DHT22;4532;50.886;4.700;2023-02-01T16:28:13;11.20;99.90
8994;DHT22;4532;50.886;4.700;2023-02-01T16:30:42;11.20;99.90
8994;DHT22;4532;50.886;4.700;2023-02-01T16:33:17;11.20;99.90
8994;DHT22;4532;50.886;4.700;2023-02-01T16:35:48;11.20;99.90
8994;DHT22;4532;50.886;4.700;2023-02-01T16:38:17;11.20;99.90
8994;DHT22;4532;50.886;4.700;2023-02-01T16:40:47;11.20;99.90
8994;DHT22;4532;50.886;4.700;2023-02-01T16:43:21;11.20;99.90
8994;DHT22;4532;50.886;4.700;2023-02-01T16:45:51;11.20;99.90
8994;DHT22;4532;50.886;4.700;2023-02-01T16:48:27;11.20;99.90
8994;DHT22;4532;50.886;4.700;2023-02-01T16:50:59;11.10;99.90
8994;DHT22;4532;50.886;4.700;2023-02-01T16:53:29;11.10;99.90
8994;DHT22;4532;50.886;4.700;2023-02-01T16:58:42;11.10;99.90
8994;DHT22;4532;50.886;4.700;2023-02-01T17:01:13;11.10;99.90
8994;DHT22;4532;50.886;4.700;2023-02-01T17:03:41;11.10;99.90
8994;DHT22;4532;50.886;4.700;2023-02-01T17:06:18;11.10;99.90
8994;DHT22;4532;50.886;4.700;2023-02-01T17:08:57;11.10;99.90
8994;DHT22;4532;50.886;4.700;2023-02-01T17:11:29;11.00;99.90
8994;DHT22;4532;50.886;4.700;2023-02-01T17:14:20;11.00;99.90
8994;DHT22;4532;50.886;4.700;2023-02-01T17:16:51;11.00;99.90
8994;DHT22;4532;50.886;4.700;2023-02-01T17:19:23;11.00;99.90
8994;DHT22;4532;50.886;4.700;2023-02-01T17:21:54;11.00;99.90
8994;DHT22;4532;50.886;4.700;2023-02-01T17:24:27;11.00;99.90
8994;DHT22;4532;50.886;4.700;2023-02-01T17:27:13;11.00;99.90
8994;DHT22;4532;50.886;4.700;2023-02-01T17:29:43;11.00;99.90
8994;DHT22;4532;50.886;4.700;2023-02-01T17:32:19;11.00;99.90
8994;DHT22;4532;50.886;4.700;2023-02-01T17:34:50;11.00;99.90
8994;DHT22;4532;50.886;4.700;2023-02-01T17:37:29;11.00;99.90
8994;DHT22;4532;50.886;4.700;2023-02-01T17:39:57;11.00;99.90
8994;DHT22;4532;50.886;4.700;2023-02-01T17:42:26;11.00;99.90
8994;DHT22;4532;50.886;4.700;2023-02-01T17:44:59;11.00;99.90
8994;DHT22;4532;50.886;4.700;2023-02-01T17:47:27;11.00;99.90
8994;DHT22;4532;50.886;4.700;2023-02-01T17:49:56;11.00;99.90
8994;DHT22;4532;50.886;4.700;2023-02-01T17:52:26;11.00;99.90
8994;DHT22;4532;50.886;4.700;2023-02-01T17:54:59;11.00;99.90
8994;DHT22;4532;50.886;4.700;2023-02-01T17:57:29;11.00;99.90
8994;DHT22;4532;50.886;4.700;2023-02-01T17:59:56;11.00;99.90
8994;DHT22;4532;50.886;4.700;2023-02-01T18:02:25;11.00;99.90
8994;DHT22;4532;50.886;4.700;2023-02-01T18:04:57;11.00;99.90
8994;DHT22;4532;50.886;4.700;2023-02-01T18:07:24;11.00;99.90
8994;DHT22;4532;50.886;4.700;2023-02-01T18:09:54;11.00;99.90
8994;DHT22;4532;50.886;4.700;2023-02-01T18:12:25;11.00;99.90
8994;DHT22;4532;50.886;4.700;2023-02-01T18:14:55;11.00;99.90
8994;DHT22;4532;50.886;4.700;2023-02-01T18:17:25;11.00;99.90
8994;DHT22;4532;50.886;4.700;2023-02-01T18:19:54;11.00;99.90
8994;DHT22;4532;50.886;4.700;2023-02-01T18:22:25;11.00;99.90
8994;DHT22;4532;50.886;4.700;2023-02-01T18:24:55;11.00;99.90
8994;DHT22;4532;50.886;4.700;2023-02-01T18:27:22;11.00;99.90
8994;DHT22;4532;50.886;4.700;2023-02-01T18:29:49;11.00;99.90
8994;DHT22;4532;50.886;4.700;2023-02-01T18:32:21;11.00;99.90
8994;DHT22;4532;50.886;4.700;2023-02-01T18:34:53;11.00;99.90
8994;DHT22;4532;50.886;4.700;2023-02-01T18:37:21;10.90;99.90
8994;DHT22;4532;50.886;4.700;2023-02-01T18:39:48;10.90;99.90
8994;DHT22;4532;50.886;4.700;2023-02-01T18:42:16;10.90;99.90
8994;DHT22;4532;50.886;4.700;2023-02-01T18:44:45;11.00;99.90
8994;DHT22;4532;50.886;4.700;2023-02-01T18:47:15;11.00;99.90
8994;DHT22;4532;50.886;4.700;2023-02-01T18:49:45;10.90;99.90
8994;DHT22;4532;50.886;4.700;2023-02-01T18:52:12;10.90;99.90
8994;DHT22;4532;50.886;4.700;2023-02-01T18:54:44;10.90;99.90
8994;DHT22;4532;50.886;4.700;2023-02-01T18:57:26;10.90;99.90
8994;DHT22;4532;50.886;4.700;2023-02-01T18:59:55;10.90;99.90
8994;DHT22;4532;50.886;4.700;2023-02-01T19:02:22;10.90;99.90
8994;DHT22;4532;50.886;4.700;2023-02-01T19:04:50;10.90;99.90
8994;DHT22;4532;50.886;4.700;2023-02-01T19:07:19;10.90;99.90
8994;DHT22;4532;50.886;4.700;2023-02-01T19:09:46;10.90;99.90
8994;DHT22;4532;50.886;4.700;2023-02-01T19:12:14;10.90;99.90
8994;DHT22;4532;50.886;4.700;2023-02-01T19:14:41;10.80;99.90
8994;DHT22;4532;50.886;4.700;2023-02-01T19:17:10;10.80;99.90
8994;DHT22;4532;50.886;4.700;2023-02-01T19:19:37;10.90;99.90
8994;DHT22;4532;50.886;4.700;2023-02-01T19:22:07;10.90;99.90